Time;durP1;ratioP1;P1;durP2;ratioP2;P2;SDS_P1;SDS_P2;PMS_P1;PMS_P2;Temp;Humidity;BMP_temperature;BMP_pressure;BME280_temperature;BME280_humidity;BME280_pressure;Samples;Min_cycle;Max_cycle;Signal;HPM_P1;HPM_P2
2023/09/19 00:00:42;;;;;;;7.03;1.70;;;15.00;99.90;;;;;;4994816;28;20125;-81
2023/09/19 00:03:09;;;;;;;7.55;1.30;;;15.00;99.90;;;;;;4994386;28;20454;-81
2023/09/19 00:05:38;;;;;;;11.40;2.17;;;15.00;99.90;;;;;;4990723;28;20161;-80
2023/09/19 00:08:05;;;;;;;7.20;2.10;;;14.90;99.90;;;;;;4985479;28;20046;-81
2023/09/19 00:10:36;;;;;;;7.63;1.30;;;14.90;99.90;;;;;;4990664;28;20038;-81
2023/09/19 00:13:07;;;;;;;6.60;1.70;;;14.90;99.90;;;;;;4990789;28;20050;-80
2023/09/19 00:15:39;;;;;;;9.88;1.50;;;14.80;99.90;;;;;;4975350;28;20042;-80
2023/09/19 00:18:07;;;;;;;11.35;1.90;;;14.80;99.90;;;;;;4990648;28;20121;-81
2023/09/19 00:20:36;;;;;;;5.82;1.17;;;14.70;99.90;;;;;;4991986;28;20102;-81
2023/09/19 00:23:04;;;;;;;9.40;1.75;;;14.70;99.90;;;;;;5009729;28;20061;-80
2023/09/19 00:25:32;;;;;;;4.32;1.40;;;14.60;99.90;;;;;;4993966;28;20038;-81
2023/09/19 00:27:58;;;;;;;11.52;1.75;;;14.60;99.90;;;;;;4977999;28;20042;-81
2023/09/19 00:30:25;;;;;;;7.43;1.38;;;14.60;99.90;;;;;;4993670;28;20057;-80
2023/09/19 00:32:52;;;;;;;4.07;1.50;;;14.50;99.90;;;;;;4993837;28;20392;-80
2023/09/19 00:35:19;;;;;;;6.72;1.50;;;14.50;99.90;;;;;;4978252;28;20041;-82
2023/09/19 00:37:46;;;;;;;8.23;1.50;;;14.40;99.90;;;;;;4989146;28;20042;-81
2023/09/19 00:40:12;;;;;;;7.00;1.50;;;14.40;99.90;;;;;;4994349;28;20097;-80
2023/09/19 00:42:40;;;;;;;6.90;1.30;;;14.30;99.90;;;;;;4977656;28;20045;-81
2023/09/19 00:45:12;;;;;;;8.70;1.52;;;14.40;99.90;;;;;;4993832;28;20101;-80
2023/09/19 00:47:49;;;;;;;6.03;1.52;;;14.30;99.90;;;;;;4977535;28;20577;-81
2023/09/19 00:50:24;;;;;;;8.90;1.50;;;14.30;99.90;;;;;;4993991;28;20105;-80
2023/09/19 00:52:55;;;;;;;7.00;2.03;;;14.20;99.90;;;;;;4993785;28;20035;-81
2023/09/19 00:55:24;;;;;;;9.40;1.67;;;14.20;99.90;;;;;;5009753;28;20046;-81
2023/09/19 00:57:51;;;;;;;3.75;1.25;;;14.10;99.90;;;;;;4977620;28;20034;-80
2023/09/19 01:00:19;;;;;;;8.32;1.63;;;14.10;99.90;;;;;;4978024;28;20394;-81
2023/09/19 01:02:47;;;;;;;6.38;1.55;;;14.10;99.90;;;;;;4993608;28;20078;-81
2023/09/19 01:05:14;;;;;;;9.82;1.70;;;14.00;99.90;;;;;;4993779;28;20037;-80
2023/09/19 01:07:41;;;;;;;5.43;1.63;;;14.00;99.90;;;;;;5009454;28;20125;-80
2023/09/19 01:10:14;;;;;;;5.10;1.38;;;14.00;99.90;;;;;;4993419;28;20510;-81
2023/09/19 01:13:10;;;;;;;6.95;1.50;;;14.00;99.90;;;;;;4993249;28;20038;-80
2023/09/19 01:15:46;;;;;;;6.93;1.55;;;13.90;99.90;;;;;;5002204;28;20045;-80
2023/09/19 01:18:21;;;;;;;7.38;1.70;;;13.90;99.90;;;;;;5009522;28;20069;-80
2023/09/19 01:21:12;;;;;;;9.73;1.60;;;13.80;99.90;;;;;;5025626;28;20074;-81
2023/09/19 01:24:05;;;;;;;6.22;1.45;;;13.90;99.90;;;;;;5009107;28;20101;-81
2023/09/19 01:26:51;;;;;;;6.85;1.60;;;13.80;99.90;;;;;;5025498;28;20129;-80
2023/09/19 01:29:34;;;;;;;9.82;1.80;;;13.70;99.90;;;;;;5009416;28;20506;-81
2023/09/19 01:32:04;;;;;;;6.57;1.40;;;13.70;99.90;;;;;;4994820;28;20085;-81
2023/09/19 01:34:52;;;;;;;7.53;1.50;;;13.70;99.90;;;;;;4997198;28;20049;-81
2023/09/19 01:37:26;;;;;;;7.28;1.48;;;13.70;99.90;;;;;;4997109;28;20038;-81
2023/09/19 01:40:05;;;;;;;8.20;2.03;;;13.60;99.90;;;;;;4996442;28;20115;-81
2023/09/19 01:42:41;;;;;;;9.73;1.70;;;13.70;99.90;;;;;;5004607;28;20406;-81
2023/09/19 01:45:13;;;;;;;6.05;1.20;;;13.60;99.90;;;;;;5032676;28;20038;-81
2023/09/19 01:47:57;;;;;;;8.07;1.75;;;13.60;99.90;;;;;;5016139;28;20042;-81
2023/09/19 01:50:52;;;;;;;9.75;1.75;;;13.60;99.90;;;;;;5011559;28;20438;-81
2023/09/19 01:53:30;;;;;;;9.25;1.70;;;13.60;99.90;;;;;;5016041;28;20034;-80
2023/09/19 01:55:58;;;;;;;6.72;1.77;;;13.50;99.90;;;;;;5031995;28;20038;-81
2023/09/19 01:58:39;;;;;;;6.78;1.65;;;13.50;99.90;;;;;;5015858;28;20490;-80
2023/09/19 02:01:08;;;;;;;8.70;1.70;;;13.40;99.90;;;;;;5032296;28;20129;-80
2023/09/19 02:03:36;;;;;;;7.07;1.73;;;13.50;99.90;;;;;;4981524;28;20069;-81
2023/09/19 02:06:03;;;;;;;8.23;1.95;;;13.40;99.90;;;;;;5012434;28;20047;-81
2023/09/19 02:08:33;;;;;;;9.23;1.60;;;13.40;99.90;;;;;;4980761;28;20046;-80
2023/09/19 02:11:00;;;;;;;6.05;1.50;;;13.40;99.90;;;;;;5012578;28;20100;-81
2023/09/19 02:13:28;;;;;;;9.32;1.70;;;13.40;99.90;;;;;;4996394;28;20041;-80
2023/09/19 02:15:55;;;;;;;7.15;1.63;;;13.30;99.90;;;;;;4996299;28;20104;-80
2023/09/19 02:18:22;;;;;;;9.07;1.50;;;13.40;99.90;;;;;;4980548;28;20483;-81
2023/09/19 02:20:51;;;;;;;6.63;1.45;;;13.30;99.90;;;;;;4996202;28;20054;-81
2023/09/19 02:23:17;;;;;;;8.63;2.03;;;13.30;99.90;;;;;;4980385;28;20050;-80
2023/09/19 02:25:52;;;;;;;12.48;1.60;;;13.30;99.90;;;;;;4993079;28;20538;-81
2023/09/19 02:28:19;;;;;;;8.18;1.60;;;13.30;99.90;;;;;;5015412;28;20057;-80
2023/09/19 02:30:50;;;;;;;8.20;1.60;;;13.30;99.90;;;;;;4999655;28;20375;-80
2023/09/19 02:33:19;;;;;;;9.23;1.40;;;13.20;99.90;;;;;;4999872;28;20135;-80
2023/09/19 02:35:46;;;;;;;10.02;1.50;;;13.20;99.90;;;;;;4999543;28;20088;-80
2023/09/19 02:38:14;;;;;;;8.98;1.73;;;13.20;99.90;;;;;;4999494;28;20125;-80
2023/09/19 02:40:43;;;;;;;9.18;1.83;;;13.20;99.90;;;;;;4999359;28;20804;-81
2023/09/19 02:43:09;;;;;;;11.77;1.98;;;13.20;99.90;;;;;;4998438;28;20077;-80
2023/09/19 02:45:36;;;;;;;6.60;1.50;;;13.10;99.90;;;;;;5015339;28;20073;-81
2023/09/19 02:48:04;;;;;;;9.32;1.67;;;13.10;99.90;;;;;;4998842;28;20524;-81
2023/09/19 02:50:31;;;;;;;9.40;1.80;;;13.10;99.90;;;;;;4999743;28;20046;-80
2023/09/19 02:52:58;;;;;;;7.85;1.52;;;13.10;99.90;;;;;;4998911;28;20052;-81
2023/09/19 02:55:25;;;;;;;11.30;2.03;;;13.10;99.90;;;;;;4999352;28;20046;-80
2023/09/19 02:57:55;;;;;;;9.13;1.67;;;13.00;99.90;;;;;;4998943;28;20561;-80
2023/09/19 03:00:22;;;;;;;8.93;2.00;;;13.10;99.90;;;;;;4998893;28;20046;-80
2023/09/19 03:02:56;;;;;;;7.35;1.58;;;13.00;99.90;;;;;;5004731;28;20040;-81
2023/09/19 03:05:23;;;;;;;5.63;1.40;;;13.00;99.90;;;;;;4979601;28;20132;-81
2023/09/19 03:07:50;;;;;;;10.82;1.98;;;13.10;99.90;;;;;;4995474;28;20092;-80
2023/09/19 03:10:21;;;;;;;5.85;1.42;;;13.00;99.90;;;;;;4995449;28;20038;-81
2023/09/19 03:12:48;;;;;;;8.38;1.55;;;13.10;99.90;;;;;;4995001;28;20479;-81
2023/09/19 03:15:15;;;;;;;10.88;1.88;;;13.00;99.90;;;;;;4995366;28;20076;-80
2023/09/19 03:17:47;;;;;;;13.60;2.10;;;13.10;99.90;;;;;;4995384;28;20038;-80
2023/09/19 03:20:17;;;;;;;9.82;1.92;;;13.00;99.90;;;;;;4995129;28;20693;-81
2023/09/19 03:22:44;;;;;;;6.32;1.80;;;13.00;99.90;;;;;;4979505;28;20053;-81
2023/09/19 03:25:11;;;;;;;5.97;2.00;;;13.00;99.90;;;;;;4995389;28;20046;-81
2023/09/19 03:27:39;;;;;;;7.45;1.80;;;13.10;99.90;;;;;;4995002;28;20042;-80
2023/09/19 03:30:08;;;;;;;8.65;1.80;;;13.10;99.90;;;;;;4994728;28;20077;-80
2023/09/19 03:32:36;;;;;;;8.75;1.67;;;13.10;99.90;;;;;;4995597;28;20086;-80
2023/09/19 03:35:06;;;;;;;11.57;2.00;;;13.10;99.90;;;;;;4978629;28;20053;-80
2023/09/19 03:37:33;;;;;;;6.63;1.75;;;13.10;99.90;;;;;;4980986;28;20054;-80
2023/09/19 03:40:04;;;;;;;5.55;1.50;;;13.00;99.90;;;;;;4997896;28;20716;-81
2023/09/19 03:42:31;;;;;;;8.93;1.70;;;13.10;99.90;;;;;;4998488;28;20147;-80
2023/09/19 03:44:59;;;;;;;9.32;1.95;;;13.00;99.90;;;;;;4997801;28;20048;-80
2023/09/19 03:47:26;;;;;;;8.00;1.65;;;13.00;99.90;;;;;;4997967;28;20044;-80
2023/09/19 03:49:53;;;;;;;10.15;1.63;;;13.00;99.90;;;;;;5014123;28;20041;-80
2023/09/19 03:52:19;;;;;;;8.98;1.73;;;13.00;99.90;;;;;;4997892;28;20042;-80
2023/09/19 03:54:46;;;;;;;7.72;1.70;;;13.00;99.90;;;;;;4997681;28;20038;-80
2023/09/19 03:57:15;;;;;;;11.40;1.83;;;13.00;99.90;;;;;;4997566;28;20461;-80
2023/09/19 03:59:45;;;;;;;8.93;1.92;;;13.00;99.90;;;;;;5013997;28;20449;-80
2023/09/19 04:02:21;;;;;;;6.60;1.45;;;13.00;99.90;;;;;;4998366;28;20046;-80
2023/09/19 04:04:49;;;;;;;7.57;1.70;;;13.00;99.90;;;;;;4999335;28;20120;-80
2023/09/19 04:07:16;;;;;;;5.57;1.52;;;12.90;99.90;;;;;;4997934;28;20478;-80
2023/09/19 04:09:43;;;;;;;8.20;1.88;;;13.00;99.90;;;;;;4997006;28;20140;-79
2023/09/19 04:12:10;;;;;;;6.28;1.73;;;12.90;99.90;;;;;;4997626;28;20566;-80
2023/09/19 04:14:37;;;;;;;8.75;1.70;;;12.90;99.90;;;;;;5029789;28;20052;-80
2023/09/19 04:17:05;;;;;;;8.82;1.33;;;13.00;99.90;;;;;;4997659;28;20103;-80
2023/09/19 04:19:31;;;;;;;8.98;2.08;;;13.00;99.90;;;;;;4997057;28;20041;-80
2023/09/19 04:21:58;;;;;;;9.20;1.65;;;12.90;99.90;;;;;;4993797;28;20550;-80
2023/09/19 04:24:25;;;;;;;10.05;2.15;;;13.00;99.90;;;;;;4978187;28;20080;-80
2023/09/19 04:26:52;;;;;;;9.30;1.60;;;13.00;99.90;;;;;;4978148;28;20499;-80
2023/09/19 04:29:20;;;;;;;8.43;1.88;;;13.00;99.90;;;;;;4977654;28;20406;-80
2023/09/19 04:31:46;;;;;;;8.88;1.83;;;13.00;99.90;;;;;;4979868;28;20081;-78
2023/09/19 04:34:16;;;;;;;11.00;2.08;;;13.00;99.90;;;;;;4993352;28;20136;-80
2023/09/19 04:36:43;;;;;;;7.40;1.63;;;13.00;99.90;;;;;;4978573;28;20530;-80
2023/09/19 04:39:12;;;;;;;6.20;1.73;;;13.00;99.90;;;;;;4977610;28;20038;-80
2023/09/19 04:41:40;;;;;;;8.63;1.80;;;13.00;99.90;;;;;;4978349;28;20487;-80
2023/09/19 04:44:07;;;;;;;8.88;1.58;;;13.10;99.90;;;;;;4977815;28;20039;-80
2023/09/19 04:46:35;;;;;;;5.78;1.58;;;13.10;99.90;;;;;;4977661;28;20045;-80
2023/09/19 04:49:05;;;;;;;9.45;1.65;;;13.10;99.90;;;;;;4993732;28;20038;-80
2023/09/19 04:51:34;;;;;;;5.50;1.60;;;13.10;99.90;;;;;;4994263;28;20042;-80
2023/09/19 04:54:02;;;;;;;9.57;1.98;;;13.10;99.90;;;;;;4993637;28;20061;-80
2023/09/19 04:56:28;;;;;;;6.13;1.70;;;13.20;99.90;;;;;;5009664;28;20042;-80
2023/09/19 04:58:55;;;;;;;6.63;1.70;;;13.20;99.90;;;;;;4977527;28;20046;-80
2023/09/19 05:01:22;;;;;;;7.40;1.90;;;13.20;99.90;;;;;;4977743;28;20567;-80
2023/09/19 05:03:52;;;;;;;6.13;1.42;;;13.20;99.90;;;;;;4995699;28;20061;-80
2023/09/19 05:06:22;;;;;;;9.02;1.50;;;13.20;99.90;;;;;;4997845;28;20030;-81
2023/09/19 05:08:51;;;;;;;6.88;1.77;;;13.30;99.90;;;;;;5016799;28;20042;-80
2023/09/19 05:11:19;;;;;;;6.07;1.60;;;13.30;99.90;;;;;;5016547;28;20037;-80
2023/09/19 05:13:46;;;;;;;6.75;1.67;;;13.30;99.90;;;;;;5021527;28;20737;-80
2023/09/19 05:16:12;;;;;;;8.38;2.03;;;13.30;99.90;;;;;;4981572;28;20042;-80
2023/09/19 05:18:39;;;;;;;8.68;1.90;;;13.30;99.90;;;;;;4981119;28;20077;-80
2023/09/19 05:21:07;;;;;;;12.48;2.30;;;13.30;99.90;;;;;;4980859;28;20077;-80
2023/09/19 05:23:34;;;;;;;5.93;1.50;;;13.40;99.90;;;;;;4996946;28;20478;-80
2023/09/19 05:26:02;;;;;;;7.22;1.92;;;13.40;99.90;;;;;;4996804;28;20081;-80
2023/09/19 05:28:29;;;;;;;7.25;1.95;;;13.40;99.90;;;;;;4980392;28;20038;-80
2023/09/19 05:30:57;;;;;;;10.65;2.03;;;13.40;99.90;;;;;;5012821;28;20046;-80
2023/09/19 05:33:24;;;;;;;10.77;2.38;;;13.40;99.90;;;;;;4980885;28;20046;-80
2023/09/19 05:35:51;;;;;;;5.85;1.60;;;13.40;99.90;;;;;;4996845;28;20386;-80
2023/09/19 05:38:19;;;;;;;8.82;2.10;;;13.40;99.90;;;;;;4980540;28;20042;-80
2023/09/19 05:40:46;;;;;;;8.38;2.10;;;13.40;99.90;;;;;;4981047;28;20128;-80
2023/09/19 05:43:14;;;;;;;9.65;2.00;;;13.40;99.90;;;;;;4980353;28;20096;-80
2023/09/19 05:45:41;;;;;;;5.80;1.80;;;13.40;99.90;;;;;;4997093;28;20519;-80
2023/09/19 05:48:13;;;;;;;7.35;2.13;;;13.40;99.90;;;;;;4996483;28;20078;-80
2023/09/19 05:50:40;;;;;;;7.68;2.00;;;13.40;99.90;;;;;;4996708;28;20054;-80
2023/09/19 05:53:06;;;;;;;5.43;1.70;;;13.50;99.90;;;;;;4998379;28;20046;-82
2023/09/19 05:55:33;;;;;;;8.52;2.10;;;13.40;99.90;;;;;;4996930;28;20129;-80
2023/09/19 05:58:00;;;;;;;7.18;1.90;;;13.50;99.90;;;;;;4996471;28;20038;-80
2023/09/19 06:00:31;;;;;;;12.55;2.03;;;13.50;99.90;;;;;;4980316;28;20495;-80
2023/09/19 06:02:59;;;;;;;10.63;2.03;;;13.50;99.90;;;;;;4981199;28;20402;-80
2023/09/19 06:05:27;;;;;;;7.32;2.10;;;13.50;99.90;;;;;;4996347;28;20050;-80
2023/09/19 06:07:54;;;;;;;10.18;2.10;;;13.50;99.90;;;;;;4996339;28;20045;-80
2023/09/19 06:10:23;;;;;;;11.15;2.92;;;13.50;99.90;;;;;;4980081;28;20034;-79
2023/09/19 06:12:49;;;;;;;9.93;2.22;;;13.50;99.90;;;;;;4980669;28;20081;-80
2023/09/19 06:15:18;;;;;;;7.88;1.80;;;13.60;99.90;;;;;;4995957;28;20074;-80
2023/09/19 06:17:49;;;;;;;12.23;2.03;;;13.60;99.90;;;;;;4999439;28;20040;-80
2023/09/19 06:20:17;;;;;;;6.13;1.70;;;13.60;99.90;;;;;;4999680;28;20092;-80
2023/09/19 06:22:45;;;;;;;8.02;2.67;;;13.60;99.90;;;;;;5015475;28;20058;-80
2023/09/19 06:25:15;;;;;;;10.48;2.22;;;13.60;99.90;;;;;;5015747;28;20041;-81
2023/09/19 06:27:42;;;;;;;8.05;1.85;;;13.70;99.90;;;;;;4999901;28;20556;-80
2023/09/19 06:30:11;;;;;;;10.80;2.10;;;13.70;99.90;;;;;;4999578;28;20096;-80
2023/09/19 06:32:38;;;;;;;11.52;2.22;;;13.70;99.90;;;;;;5015138;28;20634;-80
2023/09/19 06:35:08;;;;;;;9.73;2.00;;;13.70;99.90;;;;;;4999459;28;20124;-80
2023/09/19 06:37:35;;;;;;;10.57;2.35;;;13.70;99.90;;;;;;4990327;28;20046;-80
2023/09/19 06:40:02;;;;;;;11.13;2.20;;;13.80;99.90;;;;;;4980037;28;20053;-80
2023/09/19 06:42:29;;;;;;;9.35;2.15;;;13.80;99.90;;;;;;4980212;28;20038;-80
2023/09/19 06:44:56;;;;;;;13.15;2.60;;;13.80;99.90;;;;;;4979954;28;20101;-80
2023/09/19 06:47:25;;;;;;;16.92;2.78;;;13.80;99.90;;;;;;5004384;28;20468;-80
2023/09/19 06:49:52;;;;;;;13.55;2.13;;;13.80;99.90;;;;;;5022499;28;20041;-81
2023/09/19 06:52:22;;;;;;;13.27;2.22;;;13.90;99.90;;;;;;4987762;28;20375;-80
2023/09/19 06:54:50;;;;;;;8.13;1.75;;;13.90;99.90;;;;;;4994348;28;20042;-80
2023/09/19 06:57:17;;;;;;;6.85;1.92;;;13.90;99.90;;;;;;4991105;28;20044;-80
2023/09/19 06:59:44;;;;;;;9.00;2.03;;;13.90;99.90;;;;;;4991198;28;20045;-80
2023/09/19 07:02:11;;;;;;;12.60;2.08;;;13.90;99.90;;;;;;4998746;28;20038;-80
2023/09/19 07:04:38;;;;;;;13.02;2.38;;;13.90;99.90;;;;;;5014474;28;20037;-80
2023/09/19 07:07:05;;;;;;;11.55;2.30;;;14.00;99.90;;;;;;5015272;28;20045;-80
2023/09/19 07:09:31;;;;;;;11.05;2.25;;;14.00;99.90;;;;;;4994784;28;20049;-80
2023/09/19 07:11:58;;;;;;;11.23;1.90;;;14.00;99.90;;;;;;4995199;28;20049;-80
2023/09/19 07:14:25;;;;;;;9.32;2.40;;;14.10;99.90;;;;;;4979284;28;20129;-80
2023/09/19 07:16:51;;;;;;;11.00;2.10;;;14.10;99.90;;;;;;4979639;28;20046;-79
2023/09/19 07:19:18;;;;;;;12.35;2.22;;;14.20;99.90;;;;;;4991666;28;20041;-79
2023/09/19 07:21:50;;;;;;;8.90;1.70;;;14.30;99.90;;;;;;4993719;28;20178;-80
2023/09/19 07:24:16;;;;;;;9.55;1.90;;;14.40;99.90;;;;;;4979616;28;20046;-79
2023/09/19 07:26:45;;;;;;;14.40;2.15;;;14.40;99.90;;;;;;4987244;28;20046;-80
2023/09/19 07:29:12;;;;;;;9.45;2.03;;;14.50;99.90;;;;;;5013935;28;20131;-79
2023/09/19 07:31:38;;;;;;;9.85;2.03;;;14.50;99.90;;;;;;4997949;28;20522;-80
2023/09/19 07:34:06;;;;;;;8.40;1.90;;;14.60;99.90;;;;;;4997843;28;20509;-80
2023/09/19 07:36:35;;;;;;;7.03;1.83;;;14.70;99.90;;;;;;5023683;28;20053;-79
2023/09/19 07:39:06;;;;;;;8.32;2.05;;;14.70;99.90;;;;;;5030388;28;20034;-80
2023/09/19 07:41:33;;;;;;;12.82;1.80;;;14.70;99.90;;;;;;4998648;28;20041;-80
2023/09/19 07:44:00;;;;;;;6.70;1.50;;;14.70;99.90;;;;;;4997825;28;20042;-80
2023/09/19 07:46:27;;;;;;;16.25;2.67;;;14.80;99.90;;;;;;4998074;28;20123;-79
2023/09/19 07:48:54;;;;;;;8.48;1.92;;;14.80;99.90;;;;;;5014222;28;20073;-79
2023/09/19 07:51:21;;;;;;;11.50;1.98;;;14.80;99.90;;;;;;4994137;28;20064;-79
2023/09/19 07:53:48;;;;;;;8.63;1.95;;;14.80;99.90;;;;;;4978188;28;20124;-79
2023/09/19 07:56:15;;;;;;;9.00;1.98;;;14.90;99.90;;;;;;4978534;28;20406;-79
2023/09/19 07:58:44;;;;;;;12.85;2.20;;;14.90;99.90;;;;;;4977704;28;20072;-80
2023/09/19 08:01:10;;;;;;;9.07;1.85;;;14.90;99.90;;;;;;4979195;28;20046;-80
2023/09/19 08:03:40;;;;;;;10.85;2.20;;;15.00;99.90;;;;;;4993955;28;20587;-81
2023/09/19 08:06:07;;;;;;;10.65;1.70;;;15.00;99.90;;;;;;4994770;28;20042;-80
2023/09/19 08:08:37;;;;;;;7.05;1.63;;;15.10;99.90;;;;;;4978311;28;20082;-80
2023/09/19 08:11:11;;;;;;;6.80;1.73;;;15.10;99.90;;;;;;5010204;28;20038;-80
2023/09/19 08:13:43;;;;;;;11.05;2.42;;;15.20;99.90;;;;;;5011586;28;20100;-79
2023/09/19 08:16:10;;;;;;;8.95;1.85;;;15.20;99.90;;;;;;4997771;28;20038;-79
2023/09/19 08:18:40;;;;;;;15.18;2.22;;;15.20;99.90;;;;;;4977727;28;20125;-80
2023/09/19 08:21:10;;;;;;;7.30;1.58;;;15.20;99.90;;;;;;4997740;28;20035;-80
2023/09/19 08:23:40;;;;;;;10.50;1.90;;;15.10;99.90;;;;;;4984100;28;20088;-80
2023/09/19 08:26:07;;;;;;;9.15;1.95;;;15.20;99.90;;;;;;4985564;28;20509;-79
2023/09/19 08:28:35;;;;;;;11.05;2.05;;;15.20;99.90;;;;;;4993431;28;20053;-80
2023/09/19 08:31:06;;;;;;;6.88;2.08;;;15.30;99.90;;;;;;4994006;28;20141;-80
2023/09/19 08:33:33;;;;;;;8.63;1.88;;;15.40;99.90;;;;;;5002136;28;20038;-79
2023/09/19 08:36:00;;;;;;;7.25;2.08;;;15.50;99.90;;;;;;5016525;28;20053;-79
2023/09/19 08:38:29;;;;;;;6.97;2.13;;;15.60;99.90;;;;;;5018398;28;20038;-81
2023/09/19 08:41:00;;;;;;;8.23;1.92;;;15.60;99.90;;;;;;4993914;28;20049;-79
2023/09/19 08:43:27;;;;;;;8.85;1.90;;;15.70;99.90;;;;;;4977785;28;20049;-79
2023/09/19 08:46:14;;;;;;;8.68;2.20;;;15.80;99.90;;;;;;4984340;28;20046;-80
2023/09/19 08:49:08;;;;;;;13.70;2.83;;;15.80;99.90;;;;;;5009535;28;20773;-79
2023/09/19 08:51:50;;;;;;;6.72;1.80;;;15.90;99.90;;;;;;5006553;28;20128;-79
2023/09/19 08:54:29;;;;;;;11.43;2.05;;;16.00;99.90;;;;;;5013397;28;20133;-79
2023/09/19 08:57:02;;;;;;;5.95;1.63;;;16.10;99.90;;;;;;5000185;28;20124;-79
2023/09/19 08:59:29;;;;;;;11.18;2.40;;;16.10;99.90;;;;;;5027880;28;20060;-80
2023/09/19 09:01:56;;;;;;;7.07;1.88;;;16.10;99.90;;;;;;4996965;28;20045;-82
2023/09/19 09:04:23;;;;;;;9.90;2.25;;;16.20;99.90;;;;;;5013359;28;20491;-82
2023/09/19 09:06:53;;;;;;;9.80;1.80;;;16.30;99.90;;;;;;4996559;28;20466;-82
2023/09/19 09:09:20;;;;;;;9.68;2.40;;;16.40;99.90;;;;;;5013400;28;20049;-82
2023/09/19 09:11:52;;;;;;;11.75;2.08;;;16.40;99.90;;;;;;5013083;28;20041;-82
2023/09/19 09:14:21;;;;;;;9.48;2.30;;;16.40;99.90;;;;;;4997073;28;20515;-81
2023/09/19 09:16:48;;;;;;;6.75;2.00;;;16.40;99.90;;;;;;5012811;28;20045;-82
2023/09/19 09:19:23;;;;;;;10.43;2.28;;;16.30;99.90;;;;;;4994077;28;20495;-81
2023/09/19 09:21:51;;;;;;;10.82;2.10;;;16.30;99.90;;;;;;4993847;28;20177;-82
2023/09/19 09:24:29;;;;;;;7.63;2.42;;;16.50;99.90;;;;;;4993467;28;20046;-82
2023/09/19 09:26:59;;;;;;;10.27;2.63;;;16.60;99.90;;;;;;5000185;28;20137;-82
2023/09/19 09:29:43;;;;;;;8.73;2.35;;;16.60;99.90;;;;;;4997550;28;20061;-82
2023/09/19 09:32:31;;;;;;;13.45;2.50;;;16.70;99.90;;;;;;4996653;28;20557;-82
2023/09/19 09:35:00;;;;;;;12.65;2.65;;;16.80;99.90;;;;;;4996734;28;20077;-82
2023/09/19 09:37:30;;;;;;;9.05;2.58;;;16.80;99.90;;;;;;5012735;28;20409;-82
2023/09/19 09:40:17;;;;;;;10.63;2.72;;;16.90;99.90;;;;;;4996595;28;20042;-82
2023/09/19 09:42:49;;;;;;;12.07;2.50;;;17.00;99.90;;;;;;5012719;28;20487;-82
2023/09/19 09:48:03;;;;;;;9.90;2.35;;;17.10;99.90;;;;;;5028928;28;20099;-82
2023/09/19 09:50:55;;;;;;;10.60;2.22;;;17.20;99.90;;;;;;5005797;28;20121;-82
2023/09/19 09:53:32;;;;;;;10.40;2.35;;;17.40;99.90;;;;;;5001328;28;20569;-82
2023/09/19 09:56:09;;;;;;;12.43;2.15;;;17.40;99.90;;;;;;5015703;28;20102;-83
2023/09/19 09:58:51;;;;;;;14.98;2.65;;;17.40;99.90;;;;;;4982820;28;20133;-82
2023/09/19 10:01:18;;;;;;;10.00;2.15;;;17.50;99.90;;;;;;4983890;28;20773;-82
2023/09/19 10:03:49;;;;;;;13.80;2.80;;;17.50;99.90;;;;;;4999707;28;20048;-83
2023/09/19 10:06:27;;;;;;;11.50;2.47;;;17.60;99.90;;;;;;5000481;28;20799;-83
2023/09/19 10:09:11;;;;;;;11.40;2.17;;;17.70;99.90;;;;;;5001050;28;20054;-82
2023/09/19 10:11:45;;;;;;;8.32;1.92;;;17.80;99.90;;;;;;5015089;28;20610;-82
2023/09/19 10:14:14;;;;;;;12.73;2.55;;;17.90;99.90;;;;;;5031226;28;20048;-82
2023/09/19 10:16:47;;;;;;;10.88;2.47;;;17.90;99.90;;;;;;5004192;28;20080;-82
2023/09/19 10:19:46;;;;;;;7.78;1.88;;;17.90;99.90;;;;;;4999766;28;20078;-83
2023/09/19 10:22:16;;;;;;;8.35;1.85;;;17.80;99.90;;;;;;5010003;28;20042;-82
2023/09/19 10:24:46;;;;;;;14.38;2.45;;;17.80;99.90;;;;;;4999294;28;20046;-82
2023/09/19 10:27:16;;;;;;;10.32;2.00;;;17.80;99.90;;;;;;4984973;28;20045;-82
2023/09/19 10:29:47;;;;;;;8.70;1.95;;;17.80;99.90;;;;;;5001909;28;20494;-82
2023/09/19 10:32:18;;;;;;;14.13;2.72;;;17.90;99.90;;;;;;5028522;28;20513;-82
2023/09/19 10:34:49;;;;;;;9.38;2.17;;;17.90;99.90;;;;;;4980403;28;20142;-82
2023/09/19 10:37:17;;;;;;;11.43;2.22;;;18.10;99.90;;;;;;4989133;28;20096;-82
2023/09/19 10:39:49;;;;;;;10.45;2.20;;;18.20;99.90;;;;;;5012552;28;20046;-82
2023/09/19 10:42:19;;;;;;;8.98;2.50;;;18.20;99.90;;;;;;4999282;28;20042;-82
2023/09/19 10:44:55;;;;;;;9.85;2.10;;;18.20;99.90;;;;;;5005727;28;20491;-82
2023/09/19 10:47:24;;;;;;;8.75;1.90;;;18.20;99.90;;;;;;4999838;28;20034;-82
2023/09/19 10:49:51;;;;;;;12.90;2.53;;;18.20;99.90;;;;;;4979561;28;20042;-89
2023/09/19 10:52:23;;;;;;;14.07;2.45;;;18.30;99.90;;;;;;4995990;28;20042;-80
2023/09/19 10:54:54;;;;;;;8.43;2.10;;;18.40;99.90;;;;;;4995395;28;20046;-81
2023/09/19 10:57:27;;;;;;;8.80;2.13;;;18.40;99.90;;;;;;4981466;28;20056;-81
2023/09/19 11:00:23;;;;;;;10.57;2.35;;;18.40;99.90;;;;;;4979261;28;20043;-81
2023/09/19 11:03:11;;;;;;;10.20;2.45;;;18.40;99.90;;;;;;4997129;28;20038;-81
2023/09/19 11:05:40;;;;;;;9.38;2.05;;;18.40;99.90;;;;;;4994380;28;20045;-81
2023/09/19 11:08:08;;;;;;;10.02;2.25;;;18.40;99.90;;;;;;5012965;28;20045;-81
2023/09/19 11:10:51;;;;;;;9.30;2.33;;;18.30;99.90;;;;;;4979352;28;20483;-81
2023/09/19 11:13:30;;;;;;;8.45;2.05;;;18.40;99.90;;;;;;4992177;28;20038;-81
2023/09/19 11:16:00;;;;;;;8.27;2.15;;;18.30;99.90;;;;;;5002809;28;20053;-81
2023/09/19 11:18:42;;;;;;;9.73;2.42;;;18.30;99.90;;;;;;4994466;28;20049;-81
2023/09/19 11:21:29;;;;;;;9.35;2.20;;;18.20;99.90;;;;;;4994680;28;20045;-81
2023/09/19 11:24:22;;;;;;;8.30;2.30;;;18.30;99.90;;;;;;4991006;28;20094;-81
2023/09/19 11:26:49;;;;;;;8.50;2.40;;;18.40;99.90;;;;;;4991302;28;20042;-81
2023/09/19 11:29:29;;;;;;;10.10;2.40;;;18.40;99.90;;;;;;4975303;28;20084;-81
2023/09/19 11:31:57;;;;;;;7.82;1.77;;;18.50;99.90;;;;;;4975201;28;20082;-80
2023/09/19 11:34:39;;;;;;;9.00;2.03;;;18.60;99.90;;;;;;4991206;28;20035;-80
2023/09/19 11:37:15;;;;;;;10.15;2.33;;;18.60;99.90;;;;;;4990885;28;20130;-80
2023/09/19 11:40:16;;;;;;;10.40;2.30;;;18.60;99.90;;;;;;4991239;28;20499;-80
2023/09/19 11:42:50;;;;;;;9.82;2.33;;;18.60;99.90;;;;;;4991323;28;20679;-80
2023/09/19 11:45:50;;;;;;;9.30;2.15;;;18.60;99.90;;;;;;5013563;28;20050;-80
2023/09/19 11:48:19;;;;;;;8.20;2.15;;;18.60;99.90;;;;;;4990962;28;20081;-80
2023/09/19 11:50:47;;;;;;;9.00;2.15;;;18.70;99.90;;;;;;4975267;28;20043;-81
2023/09/19 11:53:15;;;;;;;7.88;2.00;;;18.70;99.90;;;;;;4994099;28;20569;-81
2023/09/19 11:55:43;;;;;;;9.43;2.20;;;18.80;99.90;;;;;;5012114;28;20113;-81
2023/09/19 11:58:11;;;;;;;9.88;2.20;;;18.80;99.90;;;;;;5006758;28;20571;-80
2023/09/19 12:00:41;;;;;;;5.63;1.52;;;18.70;99.90;;;;;;4975994;28;20043;-84
2023/09/19 12:03:09;;;;;;;10.10;2.03;;;18.70;99.90;;;;;;4990552;28;20039;-84
2023/09/19 12:05:37;;;;;;;14.75;2.63;;;18.60;99.90;;;;;;4975658;28;20081;-83
2023/09/19 12:08:08;;;;;;;7.68;1.67;;;18.50;99.90;;;;;;4990568;28;20491;-83
2023/09/19 12:10:47;;;;;;;10.07;2.15;;;18.40;99.90;;;;;;5001010;28;20042;-85
2023/09/19 12:13:18;;;;;;;14.15;2.03;;;18.40;99.90;;;;;;5026547;28;20042;-84
2023/09/19 12:15:47;;;;;;;9.93;2.10;;;18.50;99.90;;;;;;5010657;28;20092;-83
2023/09/19 12:18:30;;;;;;;10.45;2.17;;;18.50;99.90;;;;;;5009792;28;20459;-83
2023/09/19 12:20:57;;;;;;;7.68;1.98;;;18.60;99.90;;;;;;5006209;28;20050;-84
2023/09/19 12:23:25;;;;;;;10.68;1.95;;;18.60;99.90;;;;;;4975275;28;20459;-83
2023/09/19 12:25:56;;;;;;;8.02;1.88;;;18.80;99.90;;;;;;4975624;28;20750;-82
2023/09/19 12:28:28;;;;;;;10.05;1.85;;;18.70;99.90;;;;;;4990983;28;20126;-83
2023/09/19 12:30:55;;;;;;;9.35;1.95;;;18.60;99.90;;;;;;4975251;28;20105;-82
2023/09/19 12:33:25;;;;;;;8.65;2.15;;;18.60;99.90;;;;;;4974849;28;20046;-83
2023/09/19 12:35:55;;;;;;;9.43;2.10;;;18.60;99.90;;;;;;4975821;28;20050;-83
2023/09/19 12:38:28;;;;;;;10.52;2.30;;;18.60;99.90;;;;;;5007270;28;20137;-84
2023/09/19 12:40:56;;;;;;;14.25;2.22;;;18.60;99.90;;;;;;4974645;28;20034;-83
2023/09/19 12:43:23;;;;;;;8.73;1.80;;;18.60;99.90;;;;;;5007150;28;20039;-83
2023/09/19 12:45:50;;;;;;;8.45;1.88;;;18.40;99.90;;;;;;4974923;28;20460;-83
2023/09/19 12:48:22;;;;;;;7.47;1.50;;;18.30;99.90;;;;;;4974451;28;20805;-83
2023/09/19 12:51:05;;;;;;;6.60;1.70;;;18.20;99.90;;;;;;4975022;28;20039;-83
2023/09/19 12:53:43;;;;;;;8.45;1.70;;;18.10;99.90;;;;;;5001545;28;20046;-83
2023/09/19 12:56:12;;;;;;;9.27;2.28;;;18.10;99.90;;;;;;4994273;28;20045;-83
2023/09/19 12:58:56;;;;;;;9.23;2.00;;;18.10;99.90;;;;;;5010133;28;20068;-84
2023/09/19 13:01:27;;;;;;;8.48;1.60;;;18.20;99.90;;;;;;4994117;28;20039;-83
2023/09/19 13:04:19;;;;;;;6.80;1.88;;;18.30;99.90;;;;;;5010578;28;20054;-83